sensor_id;sensor_type;location;lat;lon;timestamp;pressure;altitude;pressure_sealevel;temperature;humidity
69574;BME280;62840;52.366;5.980;2023-04-26T00:01:47;101823.50;;;4.62;69.42
69574;BME280;62840;52.366;5.980;2023-04-26T00:04:15;101825.47;;;4.57;69.12
69574;BME280;62840;52.366;5.980;2023-04-26T00:06:41;101824.75;;;4.53;69.14
69574;BME280;62840;52.366;5.980;2023-04-26T00:09:06;101827.56;;;4.49;69.08
69574;BME280;62840;52.366;5.980;2023-04-26T00:11:32;101829.50;;;4.45;69.22
69574;BME280;62840;52.366;5.980;2023-04-26T00:13:58;101828.88;;;4.38;69.14
69574;BME280;62840;52.366;5.980;2023-04-26T00:16:24;101829.88;;;4.36;69.28
69574;BME280;62840;52.366;5.980;2023-04-26T00:18:50;101828.19;;;4.33;69.11
69574;BME280;62840;52.366;5.980;2023-04-26T00:21:18;101823.09;;;4.29;69.29
69574;BME280;62840;52.366;5.980;2023-04-26T00:23:44;101821.44;;;4.26;69.29
69574;BME280;62840;52.366;5.980;2023-04-26T00:26:09;101823.28;;;4.24;69.17
69574;BME280;62840;52.366;5.980;2023-04-26T00:28:35;101831.28;;;4.22;69.29
69574;BME280;62840;52.366;5.980;2023-04-26T00:31:01;101835.03;;;4.17;69.13
69574;BME280;62840;52.366;5.980;2023-04-26T00:33:27;101835.25;;;4.11;69.26
69574;BME280;62840;52.366;5.980;2023-04-26T00:35:53;101836.19;;;4.10;69.58
69574;BME280;62840;52.366;5.980;2023-04-26T00:38:21;101831.81;;;4.09;69.55
69574;BME280;62840;52.366;5.980;2023-04-26T00:40:47;101838.88;;;4.08;69.44
69574;BME280;62840;52.366;5.980;2023-04-26T00:43:13;101839.88;;;4.06;69.38
69574;BME280;62840;52.366;5.980;2023-04-26T00:45:38;101825.88;;;4.04;69.39
69574;BME280;62840;52.366;5.980;2023-04-26T00:48:04;101818.88;;;4.03;69.53
69574;BME280;62840;52.366;5.980;2023-04-26T00:50:31;101818.00;;;4.02;69.66
69574;BME280;62840;52.366;5.980;2023-04-26T00:52:57;101811.16;;;3.98;69.51
69574;BME280;62840;52.366;5.980;2023-04-26T00:55:26;101807.88;;;3.91;69.56
69574;BME280;62840;52.366;5.980;2023-04-26T00:57:52;101807.09;;;3.89;69.66
69574;BME280;62840;52.366;5.980;2023-04-26T01:00:18;101807.09;;;3.89;69.63
69574;BME280;62840;52.366;5.980;2023-04-26T01:02:44;101810.63;;;3.88;69.82
69574;BME280;62840;52.366;5.980;2023-04-26T01:05:10;101796.63;;;3.86;69.58
69574;BME280;62840;52.366;5.980;2023-04-26T01:07:36;101807.44;;;3.80;69.34
69574;BME280;62840;52.366;5.980;2023-04-26T01:10:02;101802.41;;;3.74;69.30
69574;BME280;62840;52.366;5.980;2023-04-26T01:12:31;101804.38;;;3.69;69.31
69574;BME280;62840;52.366;5.980;2023-04-26T01:14:58;101808.09;;;3.63;69.67
69574;BME280;62840;52.366;5.980;2023-04-26T01:17:24;101810.09;;;3.56;69.68
69574;BME280;62840;52.366;5.980;2023-04-26T01:19:51;101805.84;;;3.52;69.51
69574;BME280;62840;52.366;5.980;2023-04-26T01:22:17;101812.09;;;3.50;69.54
69574;BME280;62840;52.366;5.980;2023-04-26T01:24:49;101815.63;;;3.50;69.72
69574;BME280;62840;52.366;5.980;2023-04-26T01:27:16;101810.44;;;3.47;69.48
69574;BME280;62840;52.366;5.980;2023-04-26T01:29:42;101814.91;;;3.45;69.54
69574;BME280;62840;52.366;5.980;2023-04-26T01:32:07;101817.66;;;3.42;69.52
69574;BME280;62840;52.366;5.980;2023-04-26T01:34:33;101816.06;;;3.38;69.51
69574;BME280;62840;52.366;5.980;2023-04-26T01:36:59;101825.84;;;3.34;69.59
69574;BME280;62840;52.366;5.980;2023-04-26T01:39:26;101824.34;;;3.27;69.39
69574;BME280;62840;52.366;5.980;2023-04-26T01:41:56;101820.06;;;3.25;69.33
69574;BME280;62840;52.366;5.980;2023-04-26T01:44:21;101817.53;;;3.22;69.48
69574;BME280;62840;52.366;5.980;2023-04-26T01:46:47;101822.00;;;3.20;69.69
69574;BME280;62840;52.366;5.980;2023-04-26T01:49:13;101823.97;;;3.14;69.73
69574;BME280;62840;52.366;5.980;2023-04-26T01:51:38;101816.94;;;3.13;69.78
69574;BME280;62840;52.366;5.980;2023-04-26T01:54:04;101826.63;;;3.13;69.86
69574;BME280;62840;52.366;5.980;2023-04-26T01:56:30;101822.22;;;3.13;69.66
69574;BME280;62840;52.366;5.980;2023-04-26T01:58:58;101824.06;;;3.11;69.72
69574;BME280;62840;52.366;5.980;2023-04-26T02:01:24;101812.69;;;3.09;69.82
69574;BME280;62840;52.366;5.980;2023-04-26T02:03:51;101817.16;;;3.07;69.83
69574;BME280;62840;52.366;5.980;2023-04-26T02:06:17;101812.00;;;3.04;69.91
69574;BME280;62840;52.366;5.980;2023-04-26T02:08:44;101812.22;;;2.98;69.80
69574;BME280;62840;52.366;5.980;2023-04-26T02:11:09;101810.59;;;2.94;69.78
69574;BME280;62840;52.366;5.980;2023-04-26T02:13:35;101809.00;;;2.90;69.77
69574;BME280;62840;52.366;5.980;2023-04-26T02:16:04;101809.22;;;2.84;69.77
69574;BME280;62840;52.366;5.980;2023-04-26T02:18:30;101810.34;;;2.77;69.43
69574;BME280;62840;52.366;5.980;2023-04-26T02:20:56;101814.03;;;2.71;69.51
69574;BME280;62840;52.366;5.980;2023-04-26T02:23:21;101810.59;;;2.69;69.73
69574;BME280;62840;52.366;5.980;2023-04-26T02:25:47;101815.13;;;2.65;69.97
69574;BME280;62840;52.366;5.980;2023-04-26T02:28:13;101809.03;;;2.63;69.77
69574;BME280;62840;52.366;5.980;2023-04-26T02:30:39;101817.97;;;2.59;69.77
69574;BME280;62840;52.366;5.980;2023-04-26T02:33:08;101811.88;;;2.57;69.92
69574;BME280;62840;52.366;5.980;2023-04-26T02:35:34;101812.03;;;2.52;69.83
69574;BME280;62840;52.366;5.980;2023-04-26T02:38:00;101810.47;;;2.47;69.79
69574;BME280;62840;52.366;5.980;2023-04-26T02:40:25;101812.34;;;2.43;69.78
69574;BME280;62840;52.366;5.980;2023-04-26T02:42:51;101812.50;;;2.39;69.77
69574;BME280;62840;52.366;5.980;2023-04-26T02:45:17;101815.28;;;2.34;69.88
69574;BME280;62840;52.366;5.980;2023-04-26T02:47:43;101809.25;;;2.30;69.86
69574;BME280;62840;52.366;5.980;2023-04-26T02:50:11;101810.22;;;2.28;69.98
69574;BME280;62840;52.366;5.980;2023-04-26T02:52:37;101804.19;;;2.24;69.82
69574;BME280;62840;52.366;5.980;2023-04-26T02:55:04;101803.44;;;2.21;70.15
69574;BME280;62840;52.366;5.980;2023-04-26T02:57:31;101809.66;;;2.18;70.09
69574;BME280;62840;52.366;5.980;2023-04-26T02:59:57;101815.00;;;2.15;70.11
69574;BME280;62840;52.366;5.980;2023-04-26T03:02:23;101809.00;;;2.11;70.05
69574;BME280;62840;52.366;5.980;2023-04-26T03:04:49;101806.50;;;2.07;70.11
69574;BME280;62840;52.366;5.980;2023-04-26T03:07:18;101808.31;;;2.05;70.23
69574;BME280;62840;52.366;5.980;2023-04-26T03:09:43;101807.53;;;2.01;70.40
69574;BME280;62840;52.366;5.980;2023-04-26T03:12:10;101804.97;;;2.00;70.29
69574;BME280;62840;52.366;5.980;2023-04-26T03:14:36;101806.78;;;1.98;70.26
69574;BME280;62840;52.366;5.980;2023-04-26T03:17:02;101807.75;;;1.95;70.23
69574;BME280;62840;52.366;5.980;2023-04-26T03:19:28;101806.00;;;1.94;70.13
69574;BME280;62840;52.366;5.980;2023-04-26T03:21:54;101803.44;;;1.92;70.13
69574;BME280;62840;52.366;5.980;2023-04-26T03:24:22;101798.28;;;1.89;70.07
69574;BME280;62840;52.366;5.980;2023-04-26T03:26:48;101800.09;;;1.87;70.18
69574;BME280;62840;52.366;5.980;2023-04-26T03:29:15;101812.41;;;1.85;70.16
69574;BME280;62840;52.366;5.980;2023-04-26T03:31:41;101803.72;;;1.83;70.49
69574;BME280;62840;52.366;5.980;2023-04-26T03:34:07;101795.00;;;1.81;70.24
69574;BME280;62840;52.366;5.980;2023-04-26T03:36:32;101802.97;;;1.80;70.27
69574;BME280;62840;52.366;5.980;2023-04-26T03:38:58;101803.81;;;1.80;70.21
69574;BME280;62840;52.366;5.980;2023-04-26T03:41:26;101795.09;;;1.78;70.22
69574;BME280;62840;52.366;5.980;2023-04-26T03:43:52;101801.28;;;1.77;70.31
69574;BME280;62840;52.366;5.980;2023-04-26T03:46:18;101791.66;;;1.76;70.39
69574;BME280;62840;52.366;5.980;2023-04-26T03:48:43;101795.22;;;1.75;70.20
69574;BME280;62840;52.366;5.980;2023-04-26T03:51:09;101789.97;;;1.75;70.42
69574;BME280;62840;52.366;5.980;2023-04-26T03:53:35;101780.31;;;1.74;70.55
69574;BME280;62840;52.366;5.980;2023-04-26T03:56:01;101790.84;;;1.74;70.65
69574;BME280;62840;52.366;5.980;2023-04-26T03:58:29;101795.22;;;1.75;70.29
69574;BME280;62840;52.366;5.980;2023-04-26T04:00:55;101791.66;;;1.76;70.40
69574;BME280;62840;52.366;5.980;2023-04-26T04:03:21;101792.59;;;1.75;70.72
69574;BME280;62840;52.366;5.980;2023-04-26T04:05:47;101789.97;;;1.75;70.60
69574;BME280;62840;52.366;5.980;2023-04-26T04:08:13;101789.97;;;1.75;70.66
69574;BME280;62840;52.366;5.980;2023-04-26T04:10:38;101798.72;;;1.74;70.64
69574;BME280;62840;52.366;5.980;2023-04-26T04:13:04;101802.19;;;1.76;70.55
69574;BME280;62840;52.366;5.980;2023-04-26T04:15:32;101798.69;;;1.76;70.58
69574;BME280;62840;52.366;5.980;2023-04-26T04:17:58;101796.09;;;1.74;70.53
69574;BME280;62840;52.366;5.980;2023-04-26T04:20:24;101803.13;;;1.74;70.70
69574;BME280;62840;52.366;5.980;2023-04-26T04:22:49;101795.28;;;1.72;70.50
69574;BME280;62840;52.366;5.980;2023-04-26T04:25:15;101799.66;;;1.73;70.72
69574;BME280;62840;52.366;5.980;2023-04-26T04:27:41;101796.06;;;1.76;70.53
69574;BME280;62840;52.366;5.980;2023-04-26T04:30:08;101789.84;;;1.78;70.52
69574;BME280;62840;52.366;5.980;2023-04-26T04:32:37;101802.09;;;1.79;70.49
69574;BME280;62840;52.366;5.980;2023-04-26T04:35:03;101799.47;;;1.79;70.63
69574;BME280;62840;52.366;5.980;2023-04-26T04:37:30;101802.09;;;1.79;70.69
69574;BME280;62840;52.366;5.980;2023-04-26T04:39:55;101801.19;;;1.80;70.65
69574;BME280;62840;52.366;5.980;2023-04-26T04:42:21;101803.81;;;1.80;70.69
69574;BME280;62840;52.366;5.980;2023-04-26T04:44:47;101800.25;;;1.81;70.91
69574;BME280;62840;52.366;5.980;2023-04-26T04:47:13;101798.44;;;1.83;70.89
69574;BME280;62840;52.366;5.980;2023-04-26T04:49:41;101797.50;;;1.86;70.76
69574;BME280;62840;52.366;5.980;2023-04-26T04:52:07;101799.94;;;1.92;71.07
69574;BME280;62840;52.366;5.980;2023-04-26T04:54:32;101798.09;;;1.96;70.88
69574;BME280;62840;52.366;5.980;2023-04-26T04:56:58;101804.06;;;2.01;71.15
69574;BME280;62840;52.366;5.980;2023-04-26T04:59:24;101797.78;;;2.05;71.28
69574;BME280;62840;52.366;5.980;2023-04-26T05:01:50;101797.66;;;2.09;71.32
69574;BME280;62840;52.366;5.980;2023-04-26T05:04:16;101805.34;;;2.16;71.19
69574;BME280;62840;52.366;5.980;2023-04-26T05:06:44;101811.31;;;2.21;71.04
69574;BME280;62840;52.366;5.980;2023-04-26T05:09:10;101814.63;;;2.27;71.34
69574;BME280;62840;52.366;5.980;2023-04-26T05:11:35;101817.09;;;2.32;71.17
69574;BME280;62840;52.366;5.980;2023-04-26T05:14:01;101816.03;;;2.38;71.05
69574;BME280;62840;52.366;5.980;2023-04-26T05:16:27;101813.31;;;2.41;71.21
69574;BME280;62840;52.366;5.980;2023-04-26T05:18:53;101816.69;;;2.44;71.06
69574;BME280;62840;52.366;5.980;2023-04-26T05:21:19;101818.41;;;2.45;71.08
69574;BME280;62840;52.366;5.980;2023-04-26T05:23:48;101814.00;;;2.46;70.97
69574;BME280;62840;52.366;5.980;2023-04-26T05:26:15;101821.91;;;2.46;70.91
69574;BME280;62840;52.366;5.980;2023-04-26T05:28:41;101821.00;;;2.47;70.91
69574;BME280;62840;52.366;5.980;2023-04-26T05:31:08;101823.53;;;2.50;71.07
69574;BME280;62840;52.366;5.980;2023-04-26T05:33:34;101823.50;;;2.51;70.93
69574;BME280;62840;52.366;5.980;2023-04-26T05:36:00;101828.66;;;2.54;71.23
69574;BME280;62840;52.366;5.980;2023-04-26T05:38:26;101819.78;;;2.57;71.21
69574;BME280;62840;52.366;5.980;2023-04-26T05:40:54;101828.44;;;2.61;70.93
69574;BME280;62840;52.366;5.980;2023-04-26T05:43:20;101828.38;;;2.62;71.08
69574;BME280;62840;52.366;5.980;2023-04-26T05:45:50;101832.72;;;2.65;71.17
69574;BME280;62840;52.366;5.980;2023-04-26T05:48:15;101833.50;;;2.67;70.97
69574;BME280;62840;52.366;5.980;2023-04-26T05:50:41;101829.97;;;2.68;71.26
69574;BME280;62840;52.366;5.980;2023-04-26T05:53:07;101830.69;;;2.71;71.46
69574;BME280;62840;52.366;5.980;2023-04-26T05:55:33;101834.06;;;2.77;71.39
69574;BME280;62840;52.366;5.980;2023-04-26T05:58:01;101839.09;;;2.83;71.13
69574;BME280;62840;52.366;5.980;2023-04-26T06:00:27;101835.44;;;2.87;71.31
69574;BME280;62840;52.366;5.980;2023-04-26T06:02:53;101840.63;;;2.90;71.27
69574;BME280;62840;52.366;5.980;2023-04-26T06:05:19;101843.16;;;2.93;71.29
69574;BME280;62840;52.366;5.980;2023-04-26T06:07:45;101844.81;;;2.95;71.41
69574;BME280;62840;52.366;5.980;2023-04-26T06:10:11;101842.00;;;3.00;71.60
69574;BME280;62840;52.366;5.980;2023-04-26T06:12:37;101844.44;;;3.06;71.71
69574;BME280;62840;52.366;5.980;2023-04-26T06:15:06;101846.88;;;3.12;71.64
69574;BME280;62840;52.366;5.980;2023-04-26T06:17:32;101848.38;;;3.20;71.56
69574;BME280;62840;52.366;5.980;2023-04-26T06:19:58;101844.59;;;3.27;71.81
69574;BME280;62840;52.366;5.980;2023-04-26T06:22:24;101842.56;;;3.35;71.89
69574;BME280;62840;52.366;5.980;2023-04-26T06:24:50;101850.13;;;3.44;71.89
69574;BME280;62840;52.366;5.980;2023-04-26T06:27:15;101859.41;;;3.54;71.77
69574;BME280;62840;52.366;5.980;2023-04-26T06:29:41;101852.88;;;3.65;71.77
69574;BME280;62840;52.366;5.980;2023-04-26T06:32:10;101857.81;;;3.74;71.41
69574;BME280;62840;52.366;5.980;2023-04-26T06:34:35;101852.97;;;3.85;71.97
69574;BME280;62840;52.366;5.980;2023-04-26T06:37:01;101861.41;;;3.95;71.76
69574;BME280;62840;52.366;5.980;2023-04-26T06:39:27;101857.53;;;4.04;71.63
69574;BME280;62840;52.366;5.980;2023-04-26T06:41:52;101859.72;;;4.16;71.95
69574;BME280;62840;52.366;5.980;2023-04-26T06:44:18;101854.97;;;4.24;71.92
69574;BME280;62840;52.366;5.980;2023-04-26T06:46:44;101852.75;;;4.35;71.61
69574;BME280;62840;52.366;5.980;2023-04-26T06:49:12;101858.38;;;4.50;71.82
69574;BME280;62840;52.366;5.980;2023-04-26T06:51:38;101854.28;;;4.63;71.77
69574;BME280;62840;52.366;5.980;2023-04-26T06:54:04;101858.13;;;4.76;71.96
69574;BME280;62840;52.366;5.980;2023-04-26T06:56:29;101856.63;;;4.91;71.72
69574;BME280;62840;52.366;5.980;2023-04-26T06:58:58;101855.25;;;5.03;72.01
69574;BME280;62840;52.366;5.980;2023-04-26T07:01:25;101861.88;;;5.13;71.72
69574;BME280;62840;52.366;5.980;2023-04-26T07:03:51;101862.44;;;5.21;71.67
69574;BME280;62840;52.366;5.980;2023-04-26T07:06:19;101862.94;;;5.30;71.46
69574;BME280;62840;52.366;5.980;2023-04-26T07:08:45;101866.09;;;5.38;71.68
69574;BME280;62840;52.366;5.980;2023-04-26T07:11:11;101873.69;;;5.45;71.43
69574;BME280;62840;52.366;5.980;2023-04-26T07:13:37;101877.72;;;5.54;71.43
69574;BME280;62840;52.366;5.980;2023-04-26T07:16:03;101865.00;;;5.62;71.40
69574;BME280;62840;52.366;5.980;2023-04-26T07:18:29;101876.88;;;5.73;71.48
69574;BME280;62840;52.366;5.980;2023-04-26T07:20:55;101866.00;;;5.79;71.32
69574;BME280;62840;52.366;5.980;2023-04-26T07:23:24;101862.13;;;5.86;70.76
69574;BME280;62840;52.366;5.980;2023-04-26T07:25:49;101868.00;;;5.93;70.86
69574;BME280;62840;52.366;5.980;2023-04-26T07:28:15;101860.56;;;6.01;70.79
69574;BME280;62840;52.366;5.980;2023-04-26T07:30:41;101870.66;;;6.12;70.82
69574;BME280;62840;52.366;5.980;2023-04-26T07:33:06;101871.00;;;6.23;70.79
69574;BME280;62840;52.366;5.980;2023-04-26T07:35:32;101860.88;;;6.31;70.83
69574;BME280;62840;52.366;5.980;2023-04-26T07:37:58;101870.25;;;6.38;70.58
69574;BME280;62840;52.366;5.980;2023-04-26T07:40:26;101862.78;;;6.46;70.28
69574;BME280;62840;52.366;5.980;2023-04-26T07:42:52;101859.84;;;6.53;69.97
69574;BME280;62840;52.366;5.980;2023-04-26T07:45:18;101855.97;;;6.60;70.20
69574;BME280;62840;52.366;5.980;2023-04-26T07:47:44;101865.31;;;6.67;70.17
69574;BME280;62840;52.366;5.980;2023-04-26T07:50:10;101868.47;;;6.75;69.75
69574;BME280;62840;52.366;5.980;2023-04-26T07:52:36;101862.13;;;6.78;69.51
69574;BME280;62840;52.366;5.980;2023-04-26T07:55:02;101875.16;;;6.82;69.52
69574;BME280;62840;52.366;5.980;2023-04-26T07:57:31;101865.94;;;6.89;69.31
69574;BME280;62840;52.366;5.980;2023-04-26T07:59:57;101867.53;;;6.93;69.23
69574;BME280;62840;52.366;5.980;2023-04-26T08:02:23;101869.09;;;6.98;68.99
69574;BME280;62840;52.366;5.980;2023-04-26T08:04:49;101875.06;;;7.01;68.92
69574;BME280;62840;52.366;5.980;2023-04-26T08:07:15;101872.34;;;7.03;68.66
69574;BME280;62840;52.366;5.980;2023-04-26T08:09:41;101865.00;;;7.08;68.59
69574;BME280;62840;52.366;5.980;2023-04-26T08:12:07;101869.16;;;7.13;68.51
69574;BME280;62840;52.366;5.980;2023-04-26T08:14:36;101873.25;;;7.19;68.49
69574;BME280;62840;52.366;5.980;2023-04-26T08:17:01;101880.00;;;7.26;68.21
69574;BME280;62840;52.366;5.980;2023-04-26T08:19:27;101873.44;;;7.33;68.10
69574;BME280;62840;52.366;5.980;2023-04-26T08:21:53;101878.38;;;7.40;68.20
69574;BME280;62840;52.366;5.980;2023-04-26T08:24:19;101873.75;;;7.45;68.15
69574;BME280;62840;52.366;5.980;2023-04-26T08:26:44;101877.00;;;7.50;68.10
69574;BME280;62840;52.366;5.980;2023-04-26T08:29:10;101887.13;;;7.59;68.31
69574;BME280;62840;52.366;5.980;2023-04-26T08:31:38;101876.19;;;7.65;68.27
69574;BME280;62840;52.366;5.980;2023-04-26T08:34:04;101888.19;;;7.72;67.87
69574;BME280;62840;52.366;5.980;2023-04-26T08:36:30;101886.00;;;7.81;67.99
69574;BME280;62840;52.366;5.980;2023-04-26T08:38:55;101881.09;;;7.89;68.03
69574;BME280;62840;52.366;5.980;2023-04-26T08:41:22;101871.97;;;7.94;66.59
69574;BME280;62840;52.366;5.980;2023-04-26T08:43:48;101878.97;;;7.95;66.24
69574;BME280;62840;52.366;5.980;2023-04-26T08:46:17;101881.56;;;7.97;66.45
69574;BME280;62840;52.366;5.980;2023-04-26T08:48:52;101891.84;;;8.03;66.74
69574;BME280;62840;52.366;5.980;2023-04-26T08:51:25;101877.41;;;8.07;67.11
69574;BME280;62840;52.366;5.980;2023-04-26T08:53:52;101877.09;;;8.13;66.56
69574;BME280;62840;52.366;5.980;2023-04-26T08:56:21;101876.75;;;8.20;66.38
69574;BME280;62840;52.366;5.980;2023-04-26T08:58:48;101880.97;;;8.24;66.68
69574;BME280;62840;52.366;5.980;2023-04-26T09:01:15;101879.84;;;8.28;66.18
69574;BME280;62840;52.366;5.980;2023-04-26T09:03:42;101878.63;;;8.33;65.65
69574;BME280;62840;52.366;5.980;2023-04-26T09:06:11;101877.44;;;8.39;65.93
69574;BME280;62840;52.366;5.980;2023-04-26T09:08:39;101879.91;;;8.42;65.87
69574;BME280;62840;52.366;5.980;2023-04-26T09:11:07;101877.06;;;8.45;65.49
69574;BME280;62840;52.366;5.980;2023-04-26T09:13:32;101876.91;;;8.48;65.22
69574;BME280;62840;52.366;5.980;2023-04-26T09:15:58;101877.56;;;8.52;65.27
69574;BME280;62840;52.366;5.980;2023-04-26T09:18:24;101871.06;;;8.57;64.97
69574;BME280;62840;52.366;5.980;2023-04-26T09:21:04;101870.88;;;8.61;64.70
69574;BME280;62840;52.366;5.980;2023-04-26T09:23:33;101866.84;;;8.69;64.60
69574;BME280;62840;52.366;5.980;2023-04-26T09:26:15;101862.59;;;8.81;63.03
69574;BME280;62840;52.366;5.980;2023-04-26T09:28:42;101867.38;;;8.90;64.09
69574;BME280;62840;52.366;5.980;2023-04-26T09:31:08;101865.31;;;8.95;62.78
69574;BME280;62840;52.366;5.980;2023-04-26T09:33:33;101869.47;;;8.99;63.31
69574;BME280;62840;52.366;5.980;2023-04-26T09:36:10;101865.53;;;9.07;63.23
69574;BME280;62840;52.366;5.980;2023-04-26T09:38:43;101861.97;;;9.06;62.87
69574;BME280;62840;52.366;5.980;2023-04-26T09:41:09;101859.53;;;9.03;62.67
69574;BME280;62840;52.366;5.980;2023-04-26T09:43:36;101868.75;;;8.97;62.56
69574;BME280;62840;52.366;5.980;2023-04-26T09:46:02;101869.66;;;8.96;62.71
69574;BME280;62840;52.366;5.980;2023-04-26T09:48:29;101860.00;;;8.95;61.53
69574;BME280;62840;52.366;5.980;2023-04-26T09:50:58;101859.03;;;8.96;61.78
69574;BME280;62840;52.366;5.980;2023-04-26T09:53:34;101861.31;;;9.03;61.42
69574;BME280;62840;52.366;5.980;2023-04-26T09:56:10;101851.81;;;9.13;61.62
69574;BME280;62840;52.366;5.980;2023-04-26T09:58:53;101849.38;;;9.24;61.23
69574;BME280;62840;52.366;5.980;2023-04-26T10:01:20;101854.16;;;9.33;61.05
69574;BME280;62840;52.366;5.980;2023-04-26T10:03:46;101861.22;;;9.34;60.69
69574;BME280;62840;52.366;5.980;2023-04-26T10:06:12;101860.38;;;9.34;60.63
69574;BME280;62840;52.366;5.980;2023-04-26T10:08:38;101855.22;;;9.31;60.79
69574;BME280;62840;52.366;5.980;2023-04-26T10:11:04;101858.00;;;9.29;60.37
69574;BME280;62840;52.366;5.980;2023-04-26T10:13:34;101863.44;;;9.26;60.40
69574;BME280;62840;52.366;5.980;2023-04-26T10:16:00;101856.59;;;9.22;59.81
69574;BME280;62840;52.366;5.980;2023-04-26T10:18:26;101858.69;;;9.17;60.20
69574;BME280;62840;52.366;5.980;2023-04-26T10:20:55;101865.91;;;9.15;60.34
69574;BME280;62840;52.366;5.980;2023-04-26T10:23:24;101863.44;;;9.12;60.11
69574;BME280;62840;52.366;5.980;2023-04-26T10:25:51;101859.25;;;9.08;59.97
69574;BME280;62840;52.366;5.980;2023-04-26T10:28:17;101853.06;;;9.07;60.20
69574;BME280;62840;52.366;5.980;2023-04-26T10:31:06;101856.31;;;9.12;60.02
69574;BME280;62840;52.366;5.980;2023-04-26T10:33:31;101845.09;;;9.21;59.55
69574;BME280;62840;52.366;5.980;2023-04-26T10:36:03;101846.94;;;9.35;59.82
69574;BME280;62840;52.366;5.980;2023-04-26T10:38:31;101851.31;;;9.51;58.77
69574;BME280;62840;52.366;5.980;2023-04-26T10:47:24;101849.69;;;9.62;57.08
69574;BME280;62840;52.366;5.980;2023-04-26T10:49:53;101852.84;;;9.55;57.55
69574;BME280;62840;52.366;5.980;2023-04-26T10:52:26;101850.75;;;9.46;57.97
69574;BME280;62840;52.366;5.980;2023-04-26T10:54:55;101854.63;;;9.40;58.21
69574;BME280;62840;52.366;5.980;2023-04-26T10:57:23;101846.94;;;9.35;58.22
69574;BME280;62840;52.366;5.980;2023-04-26T11:00:28;101855.22;;;9.31;58.16
69574;BME280;62840;52.366;5.980;2023-04-26T11:03:05;101851.63;;;9.32;58.34
69574;BME280;62840;52.366;5.980;2023-04-26T11:05:51;101864.66;;;9.36;58.65
69574;BME280;62840;52.366;5.980;2023-04-26T11:08:19;101860.84;;;9.40;59.23
69574;BME280;62840;52.366;5.980;2023-04-26T11:10:50;101871.09;;;9.47;58.82
69574;BME280;62840;52.366;5.980;2023-04-26T11:13:38;101854.94;;;9.50;58.68
69574;BME280;62840;52.366;5.980;2023-04-26T11:16:06;101853.81;;;9.54;58.63
69574;BME280;62840;52.366;5.980;2023-04-26T11:18:37;101860.06;;;9.53;58.28
69574;BME280;62840;52.366;5.980;2023-04-26T11:21:05;101859.44;;;9.49;58.20
69574;BME280;62840;52.366;5.980;2023-04-26T11:23:31;101855.31;;;9.44;58.43
69574;BME280;62840;52.366;5.980;2023-04-26T11:25:57;101855.69;;;9.37;58.21
69574;BME280;62840;52.366;5.980;2023-04-26T11:28:23;101861.22;;;9.34;58.46
69574;BME280;62840;52.366;5.980;2023-04-26T11:30:49;101862.25;;;9.32;58.40
69574;BME280;62840;52.366;5.980;2023-04-26T11:33:16;101855.88;;;9.34;58.72
69574;BME280;62840;52.366;5.980;2023-04-26T11:35:45;101853.22;;;9.34;58.90
69574;BME280;62840;52.366;5.980;2023-04-26T11:38:12;101864.66;;;9.36;58.77
69574;BME280;62840;52.366;5.980;2023-04-26T11:40:38;101859.13;;;9.39;58.74
69574;BME280;62840;52.366;5.980;2023-04-26T11:43:05;101858.94;;;9.43;58.90
69574;BME280;62840;52.366;5.980;2023-04-26T11:45:32;101861.50;;;9.44;58.70
69574;BME280;62840;52.366;5.980;2023-04-26T11:48:00;101857.22;;;9.41;58.50
69574;BME280;62840;52.366;5.980;2023-04-26T11:50:28;101855.69;;;9.37;58.98
69574;BME280;62840;52.366;5.980;2023-04-26T11:53:02;101858.63;;;9.33;58.50
69574;BME280;62840;52.366;5.980;2023-04-26T11:55:32;101857.34;;;9.24;58.37
69574;BME280;62840;52.366;5.980;2023-04-26T11:57:59;101860.56;;;9.15;58.17
69574;BME280;62840;52.366;5.980;2023-04-26T12:00:25;101859.16;;;9.09;58.56
69574;BME280;62840;52.366;5.980;2023-04-26T12:02:51;101864.56;;;9.08;58.46
69574;BME280;62840;52.366;5.980;2023-04-26T12:05:21;101859.44;;;9.05;58.71
69574;BME280;62840;52.366;5.980;2023-04-26T12:07:49;101867.59;;;9.01;58.53
69574;BME280;62840;52.366;5.980;2023-04-26T12:10:20;101868.53;;;9.00;58.66
69574;BME280;62840;52.366;5.980;2023-04-26T12:12:49;101860.00;;;8.95;58.58
69574;BME280;62840;52.366;5.980;2023-04-26T12:15:16;101874.22;;;8.94;58.63
69574;BME280;62840;52.366;5.980;2023-04-26T12:17:56;101867.19;;;8.93;58.36
69574;BME280;62840;52.366;5.980;2023-04-26T12:20:28;101869.94;;;8.92;58.59
69574;BME280;62840;52.366;5.980;2023-04-26T12:23:03;101864.69;;;8.90;57.96
69574;BME280;62840;52.366;5.980;2023-04-26T12:25:33;101862.03;;;8.90;58.34
69574;BME280;62840;52.366;5.980;2023-04-26T12:28:02;101863.56;;;8.94;58.61
69574;BME280;62840;52.366;5.980;2023-04-26T12:30:30;101864.25;;;8.98;58.32
69574;BME280;62840;52.366;5.980;2023-04-26T12:32:56;101866.81;;;8.99;58.48
69574;BME280;62840;52.366;5.980;2023-04-26T12:35:22;101866.66;;;9.03;58.63
69574;BME280;62840;52.366;5.980;2023-04-26T12:37:48;101866.47;;;9.06;57.87
69574;BME280;62840;52.366;5.980;2023-04-26T12:40:15;101869.88;;;9.08;58.20
69574;BME280;62840;52.366;5.980;2023-04-26T12:42:43;101864.19;;;9.14;58.19
69574;BME280;62840;52.366;5.980;2023-04-26T12:45:09;101856.78;;;9.19;57.53
69574;BME280;62840;52.366;5.980;2023-04-26T12:47:35;101858.13;;;9.26;57.67
69574;BME280;62840;52.366;5.980;2023-04-26T12:50:01;101866.53;;;9.34;57.23
69574;BME280;62840;52.366;5.980;2023-04-26T12:52:27;101865.97;;;9.44;57.59
69574;BME280;62840;52.366;5.980;2023-04-26T12:54:54;101858.94;;;9.57;57.92
69574;BME280;62840;52.366;5.980;2023-04-26T12:57:20;101849.41;;;9.81;58.17
69574;BME280;62840;52.366;5.980;2023-04-26T12:59:48;101847.84;;;10.06;57.66
69574;BME280;62840;52.366;5.980;2023-04-26T13:02:14;101857.53;;;10.21;57.07
69574;BME280;62840;52.366;5.980;2023-04-26T13:04:40;101844.91;;;10.23;56.53
69574;BME280;62840;52.366;5.980;2023-04-26T13:07:06;101843.00;;;10.25;56.76